KZPH

Details ICAO KZPH (ZPH)
Name Zephyrhills Muni
Region United States
Timezone America/New_York (UTC-5.0)
Plans Departing 2
Arriving 6
Stats Elevation 90 ft / 27 m (AMSL)
Location 28.228201° -82.155913°
Runways 2
Magnetic Variation 5.834° W
Sunrise 2017-12-16 12:15:05 UTC / 2017-12-16 07:15:05 Local
Sunset 2017-12-16 22:36:25 UTC / 2017-12-16 17:36:25 Local
Advertisement - Login to hide

Runways

ID Width Length Bearing (true) Bearing (mag) Surface Threshold Offset Overrun Length
04 100 ft / 30 m 5,008 ft / 1,526 m 42.54° 48.37° Asphalt 0 ft / 0 m 0 ft / 0 m
18 100 ft / 30 m 5,091 ft / 1,552 m 180.30° 186.13° Asphalt 380 ft / 116 m 0 ft / 0 m
22 100 ft / 30 m 5,008 ft / 1,526 m 222.54° 228.37° Asphalt 0 ft / 0 m 0 ft / 0 m
36 100 ft / 30 m 5,091 ft / 1,552 m 0.30° 6.13° Asphalt 300 ft / 91 m 0 ft / 0 m

Map

Weather


0- 5 10 15 20 25 30 35+ Temperature / ° C

Clouds and Precipitation
Forecast for 2017-12-16 12:00 UTC. Updated a minute ago

Ground ~20,000 ft ~40,000 ft Winds

METAR

KZPH 160735Z AUTO 00000KT 10SM CLR 10/10 A3017 RMK AO2 T01010095

TAF

Not found

Frequencies

Recorded 118.97 MHz ASOS
Approach 119.90 MHz TAMPA APP/DEP
Unicom 123.07 MHz CTAF/UNICOM
Warning: Do not use this data for real-world aviation or navigation. No guarantee of current accuracy is given.